sensor_id;sensor_type;location;lat;lon;timestamp;P1;durP1;ratioP1;P2;durP2;ratioP2
56752;SDS011;42627;42.646;23.642;2022-10-16T00:00:14;6.32;;;3.00;;
56752;SDS011;42627;42.646;23.642;2022-10-16T00:02:15;4.43;;;2.25;;
56752;SDS011;42627;42.646;23.642;2022-10-16T00:04:16;4.38;;;2.28;;
56752;SDS011;42627;42.646;23.642;2022-10-16T00:06:17;5.30;;;2.47;;
56752;SDS011;42627;42.646;23.642;2022-10-16T00:08:35;7.38;;;2.70;;
56752;SDS011;42627;42.646;23.642;2022-10-16T00:10:37;5.85;;;2.58;;
56752;SDS011;42627;42.646;23.642;2022-10-16T00:12:38;5.13;;;2.47;;
56752;SDS011;42627;42.646;23.642;2022-10-16T00:14:38;6.32;;;3.15;;
56752;SDS011;42627;42.646;23.642;2022-10-16T00:16:41;5.38;;;2.85;;
56752;SDS011;42627;42.646;23.642;2022-10-16T00:21:38;5.63;;;2.97;;
56752;SDS011;42627;42.646;23.642;2022-10-16T00:23:51;4.35;;;2.45;;
56752;SDS011;42627;42.646;23.642;2022-10-16T00:26:04;4.35;;;1.95;;
56752;SDS011;42627;42.646;23.642;2022-10-16T00:28:07;6.53;;;2.72;;
56752;SDS011;42627;42.646;23.642;2022-10-16T00:30:08;6.63;;;2.72;;
56752;SDS011;42627;42.646;23.642;2022-10-16T00:32:09;5.45;;;2.03;;
56752;SDS011;42627;42.646;23.642;2022-10-16T00:34:10;3.63;;;2.20;;
56752;SDS011;42627;42.646;23.642;2022-10-16T00:36:11;3.28;;;1.67;;
56752;SDS011;42627;42.646;23.642;2022-10-16T00:38:26;4.57;;;2.20;;
56752;SDS011;42627;42.646;23.642;2022-10-16T00:40:30;3.88;;;2.00;;
56752;SDS011;42627;42.646;23.642;2022-10-16T00:42:31;3.35;;;2.00;;
56752;SDS011;42627;42.646;23.642;2022-10-16T00:53:00;6.40;;;2.58;;
56752;SDS011;42627;42.646;23.642;2022-10-16T00:55:02;4.85;;;2.50;;
56752;SDS011;42627;42.646;23.642;2022-10-16T00:57:05;5.30;;;3.28;;
56752;SDS011;42627;42.646;23.642;2022-10-16T00:59:08;7.15;;;2.75;;
56752;SDS011;42627;42.646;23.642;2022-10-16T01:01:14;7.47;;;3.15;;
56752;SDS011;42627;42.646;23.642;2022-10-16T01:03:25;7.45;;;3.58;;
56752;SDS011;42627;42.646;23.642;2022-10-16T01:05:37;5.43;;;2.60;;
56752;SDS011;42627;42.646;23.642;2022-10-16T01:08:04;8.18;;;3.00;;
56752;SDS011;42627;42.646;23.642;2022-10-16T01:10:17;7.30;;;2.90;;
56752;SDS011;42627;42.646;23.642;2022-10-16T01:25:27;5.18;;;2.25;;
56752;SDS011;42627;42.646;23.642;2022-10-16T01:27:37;6.10;;;3.22;;
56752;SDS011;42627;42.646;23.642;2022-10-16T01:31:41;4.95;;;2.53;;
56752;SDS011;42627;42.646;23.642;2022-10-16T01:33:48;5.57;;;2.65;;
56752;SDS011;42627;42.646;23.642;2022-10-16T01:38:21;5.93;;;2.78;;
56752;SDS011;42627;42.646;23.642;2022-10-16T01:40:28;8.30;;;3.45;;
56752;SDS011;42627;42.646;23.642;2022-10-16T01:42:36;7.82;;;3.67;;
56752;SDS011;42627;42.646;23.642;2022-10-16T01:44:43;11.55;;;4.78;;
56752;SDS011;42627;42.646;23.642;2022-10-16T01:47:00;6.90;;;3.63;;
56752;SDS011;42627;42.646;23.642;2022-10-16T01:54:21;9.45;;;2.92;;
56752;SDS011;42627;42.646;23.642;2022-10-16T01:56:25;6.07;;;3.38;;
56752;SDS011;42627;42.646;23.642;2022-10-16T01:58:27;10.73;;;3.50;;
56752;SDS011;42627;42.646;23.642;2022-10-16T02:00:34;6.60;;;2.90;;
56752;SDS011;42627;42.646;23.642;2022-10-16T02:02:38;10.25;;;3.70;;
56752;SDS011;42627;42.646;23.642;2022-10-16T02:04:46;9.98;;;3.35;;
56752;SDS011;42627;42.646;23.642;2022-10-16T02:07:11;8.57;;;3.40;;
56752;SDS011;42627;42.646;23.642;2022-10-16T02:09:13;6.40;;;2.45;;
56752;SDS011;42627;42.646;23.642;2022-10-16T02:11:16;5.43;;;2.90;;
56752;SDS011;42627;42.646;23.642;2022-10-16T02:14:00;5.53;;;2.72;;
56752;SDS011;42627;42.646;23.642;2022-10-16T02:16:03;6.63;;;2.47;;
56752;SDS011;42627;42.646;23.642;2022-10-16T02:20:57;2.90;;;1.67;;
56752;SDS011;42627;42.646;23.642;2022-10-16T02:22:59;4.53;;;2.13;;
56752;SDS011;42627;42.646;23.642;2022-10-16T02:25:14;3.40;;;2.13;;
56752;SDS011;42627;42.646;23.642;2022-10-16T02:27:34;4.22;;;2.17;;
56752;SDS011;42627;42.646;23.642;2022-10-16T02:29:52;5.85;;;2.20;;
56752;SDS011;42627;42.646;23.642;2022-10-16T02:32:00;4.40;;;1.80;;
56752;SDS011;42627;42.646;23.642;2022-10-16T02:38:16;3.85;;;1.92;;
56752;SDS011;42627;42.646;23.642;2022-10-16T02:40:18;4.35;;;2.10;;
56752;SDS011;42627;42.646;23.642;2022-10-16T02:42:19;8.13;;;2.10;;
56752;SDS011;42627;42.646;23.642;2022-10-16T02:44:20;3.03;;;1.77;;
56752;SDS011;42627;42.646;23.642;2022-10-16T02:52:14;3.95;;;1.70;;
56752;SDS011;42627;42.646;23.642;2022-10-16T02:54:14;3.17;;;1.70;;
56752;SDS011;42627;42.646;23.642;2022-10-16T02:56:15;3.65;;;1.98;;
56752;SDS011;42627;42.646;23.642;2022-10-16T02:58:16;4.78;;;2.05;;
56752;SDS011;42627;42.646;23.642;2022-10-16T03:00:17;3.55;;;2.03;;
56752;SDS011;42627;42.646;23.642;2022-10-16T03:02:18;2.88;;;1.88;;
56752;SDS011;42627;42.646;23.642;2022-10-16T03:04:19;3.83;;;2.05;;
56752;SDS011;42627;42.646;23.642;2022-10-16T03:08:30;4.20;;;2.15;;
56752;SDS011;42627;42.646;23.642;2022-10-16T03:10:30;3.67;;;2.30;;
56752;SDS011;42627;42.646;23.642;2022-10-16T03:12:31;5.45;;;2.08;;
56752;SDS011;42627;42.646;23.642;2022-10-16T03:14:33;6.10;;;2.33;;
56752;SDS011;42627;42.646;23.642;2022-10-16T03:21:37;4.20;;;2.35;;
56752;SDS011;42627;42.646;23.642;2022-10-16T03:23:37;9.43;;;3.20;;
56752;SDS011;42627;42.646;23.642;2022-10-16T03:25:39;5.55;;;2.85;;
56752;SDS011;42627;42.646;23.642;2022-10-16T03:27:39;7.60;;;2.90;;
56752;SDS011;42627;42.646;23.642;2022-10-16T03:29:40;5.85;;;3.42;;
56752;SDS011;42627;42.646;23.642;2022-10-16T03:31:41;5.50;;;2.47;;
56752;SDS011;42627;42.646;23.642;2022-10-16T03:33:42;4.80;;;2.60;;
56752;SDS011;42627;42.646;23.642;2022-10-16T03:35:57;4.78;;;2.60;;
56752;SDS011;42627;42.646;23.642;2022-10-16T03:37:58;6.25;;;2.20;;
56752;SDS011;42627;42.646;23.642;2022-10-16T03:39:59;4.53;;;2.70;;
56752;SDS011;42627;42.646;23.642;2022-10-16T03:41:59;7.25;;;2.72;;
56752;SDS011;42627;42.646;23.642;2022-10-16T03:44:00;5.95;;;2.80;;
56752;SDS011;42627;42.646;23.642;2022-10-16T03:51:10;5.05;;;2.38;;
56752;SDS011;42627;42.646;23.642;2022-10-16T03:53:10;3.58;;;2.28;;
56752;SDS011;42627;42.646;23.642;2022-10-16T03:55:11;7.88;;;2.92;;
56752;SDS011;42627;42.646;23.642;2022-10-16T03:57:12;7.03;;;2.63;;
56752;SDS011;42627;42.646;23.642;2022-10-16T03:59:13;5.80;;;1.85;;
56752;SDS011;42627;42.646;23.642;2022-10-16T04:01:13;5.07;;;2.30;;
56752;SDS011;42627;42.646;23.642;2022-10-16T04:03:14;6.45;;;2.80;;
56752;SDS011;42627;42.646;23.642;2022-10-16T04:07:38;6.30;;;2.53;;
56752;SDS011;42627;42.646;23.642;2022-10-16T04:09:38;4.95;;;1.98;;
56752;SDS011;42627;42.646;23.642;2022-10-16T04:11:39;5.63;;;3.25;;
56752;SDS011;42627;42.646;23.642;2022-10-16T04:13:40;5.57;;;3.08;;
56752;SDS011;42627;42.646;23.642;2022-10-16T04:23:12;6.07;;;2.47;;
56752;SDS011;42627;42.646;23.642;2022-10-16T04:25:30;6.97;;;3.88;;
56752;SDS011;42627;42.646;23.642;2022-10-16T04:27:31;14.57;;;5.68;;
56752;SDS011;42627;42.646;23.642;2022-10-16T04:29:32;9.77;;;4.95;;
56752;SDS011;42627;42.646;23.642;2022-10-16T04:31:33;8.32;;;3.53;;
56752;SDS011;42627;42.646;23.642;2022-10-16T04:33:34;4.05;;;2.28;;
56752;SDS011;42627;42.646;23.642;2022-10-16T04:37:45;10.48;;;4.38;;
56752;SDS011;42627;42.646;23.642;2022-10-16T04:39:46;9.13;;;4.50;;
56752;SDS011;42627;42.646;23.642;2022-10-16T04:41:46;16.35;;;7.70;;
56752;SDS011;42627;42.646;23.642;2022-10-16T04:43:47;32.35;;;18.80;;
56752;SDS011;42627;42.646;23.642;2022-10-16T04:51:24;6.15;;;2.45;;
56752;SDS011;42627;42.646;23.642;2022-10-16T04:53:26;5.85;;;2.75;;
56752;SDS011;42627;42.646;23.642;2022-10-16T04:55:27;7.13;;;3.38;;
56752;SDS011;42627;42.646;23.642;2022-10-16T04:57:28;7.03;;;3.53;;
56752;SDS011;42627;42.646;23.642;2022-10-16T04:59:29;4.32;;;3.03;;
56752;SDS011;42627;42.646;23.642;2022-10-16T05:01:30;4.15;;;1.98;;
56752;SDS011;42627;42.646;23.642;2022-10-16T05:03:31;3.50;;;2.40;;
56752;SDS011;42627;42.646;23.642;2022-10-16T05:07:42;4.90;;;2.55;;
56752;SDS011;42627;42.646;23.642;2022-10-16T05:09:43;7.18;;;3.78;;
56752;SDS011;42627;42.646;23.642;2022-10-16T05:11:43;8.25;;;3.80;;
56752;SDS011;42627;42.646;23.642;2022-10-16T05:13:44;6.75;;;3.95;;
56752;SDS011;42627;42.646;23.642;2022-10-16T05:20:58;13.02;;;3.45;;
56752;SDS011;42627;42.646;23.642;2022-10-16T05:22:58;7.63;;;3.58;;
56752;SDS011;42627;42.646;23.642;2022-10-16T05:24:59;11.88;;;5.60;;
56752;SDS011;42627;42.646;23.642;2022-10-16T05:27:00;23.38;;;7.95;;
56752;SDS011;42627;42.646;23.642;2022-10-16T05:29:01;13.00;;;4.40;;
56752;SDS011;42627;42.646;23.642;2022-10-16T05:31:08;10.07;;;3.97;;
56752;SDS011;42627;42.646;23.642;2022-10-16T05:33:09;42.20;;;15.73;;
56752;SDS011;42627;42.646;23.642;2022-10-16T05:37:20;34.85;;;13.60;;
56752;SDS011;42627;42.646;23.642;2022-10-16T05:39:21;11.13;;;6.10;;
56752;SDS011;42627;42.646;23.642;2022-10-16T05:41:23;6.47;;;3.97;;
56752;SDS011;42627;42.646;23.642;2022-10-16T05:43:29;6.50;;;3.33;;
56752;SDS011;42627;42.646;23.642;2022-10-16T05:50:41;45.03;;;21.00;;
56752;SDS011;42627;42.646;23.642;2022-10-16T05:52:42;40.17;;;18.75;;
56752;SDS011;42627;42.646;23.642;2022-10-16T05:54:43;47.05;;;21.67;;
56752;SDS011;42627;42.646;23.642;2022-10-16T05:56:44;39.90;;;20.10;;
56752;SDS011;42627;42.646;23.642;2022-10-16T05:58:45;26.90;;;15.35;;
56752;SDS011;42627;42.646;23.642;2022-10-16T06:00:58;23.08;;;12.20;;
56752;SDS011;42627;42.646;23.642;2022-10-16T06:03:07;13.35;;;6.53;;
56752;SDS011;42627;42.646;23.642;2022-10-16T06:05:20;4.88;;;2.92;;
56752;SDS011;42627;42.646;23.642;2022-10-16T06:07:22;7.55;;;4.00;;
56752;SDS011;42627;42.646;23.642;2022-10-16T06:09:23;8.57;;;4.05;;
56752;SDS011;42627;42.646;23.642;2022-10-16T06:11:26;10.23;;;5.28;;
56752;SDS011;42627;42.646;23.642;2022-10-16T06:13:28;12.70;;;6.43;;
56752;SDS011;42627;42.646;23.642;2022-10-16T06:15:42;17.60;;;8.75;;
56752;SDS011;42627;42.646;23.642;2022-10-16T06:17:58;13.05;;;8.13;;
56752;SDS011;42627;42.646;23.642;2022-10-16T06:20:05;15.48;;;6.97;;
56752;SDS011;42627;42.646;23.642;2022-10-16T06:22:06;18.52;;;7.82;;
56752;SDS011;42627;42.646;23.642;2022-10-16T06:24:07;14.25;;;6.88;;
56752;SDS011;42627;42.646;23.642;2022-10-16T06:26:09;15.25;;;7.72;;
56752;SDS011;42627;42.646;23.642;2022-10-16T06:28:11;13.73;;;6.85;;
56752;SDS011;42627;42.646;23.642;2022-10-16T06:30:13;13.18;;;6.00;;
56752;SDS011;42627;42.646;23.642;2022-10-16T06:32:14;12.75;;;5.13;;
56752;SDS011;42627;42.646;23.642;2022-10-16T06:34:36;7.93;;;3.67;;
56752;SDS011;42627;42.646;23.642;2022-10-16T06:36:41;9.73;;;5.22;;
56752;SDS011;42627;42.646;23.642;2022-10-16T06:38:43;8.85;;;3.88;;
56752;SDS011;42627;42.646;23.642;2022-10-16T06:40:47;7.30;;;3.70;;
56752;SDS011;42627;42.646;23.642;2022-10-16T06:42:49;6.57;;;3.88;;
56752;SDS011;42627;42.646;23.642;2022-10-16T06:47:37;6.05;;;3.13;;
56752;SDS011;42627;42.646;23.642;2022-10-16T06:49:46;7.43;;;3.35;;
56752;SDS011;42627;42.646;23.642;2022-10-16T06:51:47;7.90;;;3.63;;
56752;SDS011;42627;42.646;23.642;2022-10-16T06:53:49;6.70;;;3.00;;
56752;SDS011;42627;42.646;23.642;2022-10-16T06:55:51;12.95;;;5.50;;
56752;SDS011;42627;42.646;23.642;2022-10-16T06:57:52;6.35;;;2.80;;
56752;SDS011;42627;42.646;23.642;2022-10-16T06:59:53;6.95;;;2.90;;
56752;SDS011;42627;42.646;23.642;2022-10-16T07:01:54;4.32;;;2.65;;
56752;SDS011;42627;42.646;23.642;2022-10-16T07:04:10;5.93;;;3.13;;
56752;SDS011;42627;42.646;23.642;2022-10-16T07:06:12;5.68;;;2.88;;
56752;SDS011;42627;42.646;23.642;2022-10-16T07:08:14;4.80;;;2.65;;
56752;SDS011;42627;42.646;23.642;2022-10-16T07:10:15;6.53;;;2.70;;
56752;SDS011;42627;42.646;23.642;2022-10-16T07:12:16;4.60;;;2.35;;
56752;SDS011;42627;42.646;23.642;2022-10-16T07:17:09;7.32;;;2.80;;
56752;SDS011;42627;42.646;23.642;2022-10-16T07:19:15;4.32;;;2.42;;
56752;SDS011;42627;42.646;23.642;2022-10-16T07:21:20;8.05;;;3.20;;
56752;SDS011;42627;42.646;23.642;2022-10-16T07:23:22;5.18;;;2.60;;
56752;SDS011;42627;42.646;23.642;2022-10-16T07:25:23;5.88;;;2.75;;
56752;SDS011;42627;42.646;23.642;2022-10-16T07:27:23;6.68;;;3.05;;
56752;SDS011;42627;42.646;23.642;2022-10-16T07:29:24;6.43;;;2.63;;
56752;SDS011;42627;42.646;23.642;2022-10-16T07:31:25;4.97;;;2.40;;
56752;SDS011;42627;42.646;23.642;2022-10-16T07:35:36;5.13;;;2.65;;
56752;SDS011;42627;42.646;23.642;2022-10-16T07:37:37;5.97;;;2.63;;
56752;SDS011;42627;42.646;23.642;2022-10-16T07:39:38;6.85;;;2.83;;
56752;SDS011;42627;42.646;23.642;2022-10-16T07:41:38;5.13;;;2.90;;
56752;SDS011;42627;42.646;23.642;2022-10-16T07:48:54;6.65;;;2.95;;
56752;SDS011;42627;42.646;23.642;2022-10-16T07:51:02;6.43;;;2.97;;
56752;SDS011;42627;42.646;23.642;2022-10-16T07:53:04;5.25;;;2.72;;
56752;SDS011;42627;42.646;23.642;2022-10-16T07:55:05;7.63;;;3.08;;
56752;SDS011;42627;42.646;23.642;2022-10-16T07:57:06;5.15;;;2.83;;
56752;SDS011;42627;42.646;23.642;2022-10-16T07:59:06;4.15;;;2.60;;
56752;SDS011;42627;42.646;23.642;2022-10-16T08:01:08;4.32;;;2.65;;
56752;SDS011;42627;42.646;23.642;2022-10-16T08:03:10;6.22;;;2.60;;
56752;SDS011;42627;42.646;23.642;2022-10-16T08:05:11;4.00;;;2.38;;
56752;SDS011;42627;42.646;23.642;2022-10-16T08:07:11;4.70;;;2.53;;
56752;SDS011;42627;42.646;23.642;2022-10-16T08:09:14;5.45;;;2.40;;
56752;SDS011;42627;42.646;23.642;2022-10-16T08:11:15;4.70;;;2.35;;
56752;SDS011;42627;42.646;23.642;2022-10-16T08:13:16;4.68;;;2.25;;
56752;SDS011;42627;42.646;23.642;2022-10-16T08:15:16;5.47;;;2.40;;
56752;SDS011;42627;42.646;23.642;2022-10-16T08:17:24;4.85;;;2.10;;
56752;SDS011;42627;42.646;23.642;2022-10-16T08:19:24;4.65;;;2.58;;
56752;SDS011;42627;42.646;23.642;2022-10-16T08:21:26;3.97;;;2.58;;
56752;SDS011;42627;42.646;23.642;2022-10-16T08:23:27;5.43;;;2.42;;
56752;SDS011;42627;42.646;23.642;2022-10-16T08:25:28;3.90;;;2.15;;
56752;SDS011;42627;42.646;23.642;2022-10-16T08:33:23;4.85;;;2.03;;
56752;SDS011;42627;42.646;23.642;2022-10-16T08:35:23;3.85;;;2.40;;
56752;SDS011;42627;42.646;23.642;2022-10-16T08:37:24;4.00;;;2.28;;
56752;SDS011;42627;42.646;23.642;2022-10-16T08:39:25;7.75;;;2.15;;
56752;SDS011;42627;42.646;23.642;2022-10-16T08:48:53;2.80;;;1.52;;
56752;SDS011;42627;42.646;23.642;2022-10-16T08:50:53;3.05;;;1.70;;
56752;SDS011;42627;42.646;23.642;2022-10-16T08:52:54;4.68;;;1.95;;
56752;SDS011;42627;42.646;23.642;2022-10-16T08:54:56;3.40;;;1.95;;
56752;SDS011;42627;42.646;23.642;2022-10-16T08:57:00;14.55;;;2.38;;
56752;SDS011;42627;42.646;23.642;2022-10-16T08:59:10;4.53;;;1.83;;
56752;SDS011;42627;42.646;23.642;2022-10-16T09:01:13;3.85;;;1.98;;
56752;SDS011;42627;42.646;23.642;2022-10-16T09:12:15;6.72;;;2.42;;
56752;SDS011;42627;42.646;23.642;2022-10-16T09:19:51;3.47;;;1.98;;
56752;SDS011;42627;42.646;23.642;2022-10-16T09:22:38;4.00;;;2.20;;
56752;SDS011;42627;42.646;23.642;2022-10-16T09:24:39;3.55;;;1.80;;
56752;SDS011;42627;42.646;23.642;2022-10-16T09:26:41;3.88;;;2.05;;
56752;SDS011;42627;42.646;23.642;2022-10-16T09:28:42;5.65;;;1.92;;
56752;SDS011;42627;42.646;23.642;2022-10-16T09:30:43;4.45;;;2.20;;
56752;SDS011;42627;42.646;23.642;2022-10-16T09:32:44;3.42;;;1.60;;
56752;SDS011;42627;42.646;23.642;2022-10-16T09:34:49;4.15;;;1.88;;
56752;SDS011;42627;42.646;23.642;2022-10-16T09:39:17;4.80;;;2.17;;
56752;SDS011;42627;42.646;23.642;2022-10-16T09:41:21;5.15;;;2.53;;
56752;SDS011;42627;42.646;23.642;2022-10-16T09:43:27;2.55;;;1.80;;
56752;SDS011;42627;42.646;23.642;2022-10-16T09:53:21;2.78;;;1.45;;
56752;SDS011;42627;42.646;23.642;2022-10-16T09:55:22;19.25;;;5.32;;
56752;SDS011;42627;42.646;23.642;2022-10-16T09:57:23;6.07;;;2.78;;
56752;SDS011;42627;42.646;23.642;2022-10-16T09:59:24;5.25;;;2.30;;
56752;SDS011;42627;42.646;23.642;2022-10-16T10:01:29;2.70;;;1.55;;
56752;SDS011;42627;42.646;23.642;2022-10-16T10:03:43;3.00;;;1.43;;
56752;SDS011;42627;42.646;23.642;2022-10-16T10:06:05;3.88;;;1.80;;
56752;SDS011;42627;42.646;23.642;2022-10-16T10:08:12;3.30;;;1.92;;
56752;SDS011;42627;42.646;23.642;2022-10-16T10:10:22;3.70;;;1.75;;
56752;SDS011;42627;42.646;23.642;2022-10-16T10:12:27;2.67;;;1.58;;
56752;SDS011;42627;42.646;23.642;2022-10-16T10:24:32;4.75;;;1.67;;
56752;SDS011;42627;42.646;23.642;2022-10-16T10:26:33;2.13;;;1.20;;
56752;SDS011;42627;42.646;23.642;2022-10-16T10:30:52;3.08;;;1.40;;
56752;SDS011;42627;42.646;23.642;2022-10-16T10:44:58;3.35;;;1.63;;
56752;SDS011;42627;42.646;23.642;2022-10-16T11:01:39;4.22;;;1.50;;
56752;SDS011;42627;42.646;23.642;2022-10-16T11:10:50;4.50;;;2.22;;
56752;SDS011;42627;42.646;23.642;2022-10-16T11:12:55;4.53;;;1.50;;
56752;SDS011;42627;42.646;23.642;2022-10-16T11:20:45;3.45;;;1.60;;
56752;SDS011;42627;42.646;23.642;2022-10-16T11:22:58;2.30;;;1.25;;
56752;SDS011;42627;42.646;23.642;2022-10-16T11:27:21;2.72;;;1.25;;
56752;SDS011;42627;42.646;23.642;2022-10-16T11:29:30;3.30;;;1.38;;
56752;SDS011;42627;42.646;23.642;2022-10-16T11:31:39;4.82;;;1.60;;
56752;SDS011;42627;42.646;23.642;2022-10-16T11:40:29;3.20;;;1.48;;
56752;SDS011;42627;42.646;23.642;2022-10-16T11:42:40;3.05;;;1.27;;
56752;SDS011;42627;42.646;23.642;2022-10-16T11:57:57;5.22;;;1.50;;
56752;SDS011;42627;42.646;23.642;2022-10-16T12:04:29;4.78;;;1.20;;
56752;SDS011;42627;42.646;23.642;2022-10-16T12:06:35;2.50;;;1.42;;
56752;SDS011;42627;42.646;23.642;2022-10-16T12:08:42;3.25;;;1.10;;
56752;SDS011;42627;42.646;23.642;2022-10-16T12:15:33;8.05;;;1.65;;
56752;SDS011;42627;42.646;23.642;2022-10-16T12:17:35;2.85;;;1.58;;
56752;SDS011;42627;42.646;23.642;2022-10-16T12:19:42;3.00;;;1.40;;
56752;SDS011;42627;42.646;23.642;2022-10-16T12:22:02;2.63;;;1.05;;
56752;SDS011;42627;42.646;23.642;2022-10-16T12:26:40;3.33;;;1.00;;
56752;SDS011;42627;42.646;23.642;2022-10-16T12:28:45;4.70;;;1.15;;
56752;SDS011;42627;42.646;23.642;2022-10-16T12:30:56;2.70;;;0.93;;
56752;SDS011;42627;42.646;23.642;2022-10-16T12:33:32;2.17;;;1.15;;
56752;SDS011;42627;42.646;23.642;2022-10-16T12:35:28;1.30;;;0.70;;
56752;SDS011;42627;42.646;23.642;2022-10-16T12:37:33;3.97;;;0.95;;
56752;SDS011;42627;42.646;23.642;2022-10-16T12:41:45;1.83;;;0.95;;
56752;SDS011;42627;42.646;23.642;2022-10-16T12:43:47;1.27;;;0.80;;
56752;SDS011;42627;42.646;23.642;2022-10-16T12:45:48;3.40;;;1.40;;
56752;SDS011;42627;42.646;23.642;2022-10-16T12:48:17;4.00;;;1.30;;
56752;SDS011;42627;42.646;23.642;2022-10-16T12:56:03;1.98;;;0.90;;
56752;SDS011;42627;42.646;23.642;2022-10-16T13:10:10;5.32;;;1.48;;
56752;SDS011;42627;42.646;23.642;2022-10-16T13:15:20;3.35;;;1.67;;
56752;SDS011;42627;42.646;23.642;2022-10-16T13:28:00;3.72;;;1.55;;
56752;SDS011;42627;42.646;23.642;2022-10-16T13:30:02;2.83;;;1.30;;
56752;SDS011;42627;42.646;23.642;2022-10-16T13:32:10;2.33;;;1.30;;
56752;SDS011;42627;42.646;23.642;2022-10-16T13:34:19;2.13;;;0.93;;
56752;SDS011;42627;42.646;23.642;2022-10-16T13:36:23;1.58;;;1.13;;
56752;SDS011;42627;42.646;23.642;2022-10-16T13:38:26;3.10;;;1.75;;
56752;SDS011;42627;42.646;23.642;2022-10-16T13:40:33;2.63;;;1.20;;
56752;SDS011;42627;42.646;23.642;2022-10-16T13:42:34;2.33;;;0.98;;
56752;SDS011;42627;42.646;23.642;2022-10-16T13:44:36;3.67;;;1.17;;
56752;SDS011;42627;42.646;23.642;2022-10-16T13:46:41;2.38;;;1.27;;
56752;SDS011;42627;42.646;23.642;2022-10-16T13:48:42;3.00;;;1.15;;
56752;SDS011;42627;42.646;23.642;2022-10-16T13:55:57;8.20;;;2.35;;
56752;SDS011;42627;42.646;23.642;2022-10-16T13:58:12;1.73;;;1.00;;
56752;SDS011;42627;42.646;23.642;2022-10-16T14:00:17;2.17;;;1.05;;
56752;SDS011;42627;42.646;23.642;2022-10-16T14:04:22;2.95;;;1.50;;
56752;SDS011;42627;42.646;23.642;2022-10-16T14:06:24;1.48;;;1.00;;
56752;SDS011;42627;42.646;23.642;2022-10-16T14:08:25;1.90;;;0.82;;
56752;SDS011;42627;42.646;23.642;2022-10-16T14:10:33;1.42;;;0.77;;
56752;SDS011;42627;42.646;23.642;2022-10-16T14:12:34;2.40;;;1.40;;
56752;SDS011;42627;42.646;23.642;2022-10-16T14:14:45;2.90;;;1.00;;
56752;SDS011;42627;42.646;23.642;2022-10-16T14:16:47;1.63;;;1.00;;
56752;SDS011;42627;42.646;23.642;2022-10-16T14:18:57;3.28;;;1.35;;
56752;SDS011;42627;42.646;23.642;2022-10-16T14:24:40;2.95;;;1.33;;
56752;SDS011;42627;42.646;23.642;2022-10-16T14:26:44;2.55;;;1.02;;
56752;SDS011;42627;42.646;23.642;2022-10-16T14:28:49;2.58;;;0.93;;
56752;SDS011;42627;42.646;23.642;2022-10-16T14:31:19;2.25;;;1.00;;
56752;SDS011;42627;42.646;23.642;2022-10-16T14:35:34;2.38;;;1.08;;
56752;SDS011;42627;42.646;23.642;2022-10-16T14:37:39;1.92;;;1.00;;
56752;SDS011;42627;42.646;23.642;2022-10-16T14:39:51;4.55;;;1.52;;
56752;SDS011;42627;42.646;23.642;2022-10-16T14:41:54;2.97;;;1.30;;
56752;SDS011;42627;42.646;23.642;2022-10-16T14:44:06;3.47;;;1.00;;
56752;SDS011;42627;42.646;23.642;2022-10-16T14:46:13;3.95;;;1.40;;
56752;SDS011;42627;42.646;23.642;2022-10-16T14:48:17;1.60;;;1.00;;
56752;SDS011;42627;42.646;23.642;2022-10-16T14:50:35;2.53;;;1.67;;
56752;SDS011;42627;42.646;23.642;2022-10-16T14:52:47;3.40;;;1.13;;
56752;SDS011;42627;42.646;23.642;2022-10-16T14:54:50;2.90;;;1.20;;
56752;SDS011;42627;42.646;23.642;2022-10-16T14:56:55;2.42;;;1.10;;
56752;SDS011;42627;42.646;23.642;2022-10-16T14:58:58;3.50;;;1.65;;
56752;SDS011;42627;42.646;23.642;2022-10-16T15:00:59;3.80;;;1.50;;
56752;SDS011;42627;42.646;23.642;2022-10-16T15:03:00;2.42;;;1.20;;
56752;SDS011;42627;42.646;23.642;2022-10-16T15:05:02;2.92;;;1.25;;
56752;SDS011;42627;42.646;23.642;2022-10-16T15:07:32;2.63;;;1.02;;
56752;SDS011;42627;42.646;23.642;2022-10-16T15:09:32;2.47;;;1.45;;
56752;SDS011;42627;42.646;23.642;2022-10-16T15:11:33;2.67;;;1.02;;
56752;SDS011;42627;42.646;23.642;2022-10-16T15:13:34;2.53;;;1.10;;
56752;SDS011;42627;42.646;23.642;2022-10-16T15:15:37;3.78;;;1.20;;
56752;SDS011;42627;42.646;23.642;2022-10-16T15:17:42;2.15;;;1.35;;
56752;SDS011;42627;42.646;23.642;2022-10-16T15:19:43;6.25;;;1.35;;
56752;SDS011;42627;42.646;23.642;2022-10-16T15:21:43;3.33;;;1.45;;
56752;SDS011;42627;42.646;23.642;2022-10-16T15:23:45;3.30;;;1.60;;
56752;SDS011;42627;42.646;23.642;2022-10-16T15:25:52;3.75;;;1.35;;
56752;SDS011;42627;42.646;23.642;2022-10-16T15:27:54;2.88;;;1.27;;
56752;SDS011;42627;42.646;23.642;2022-10-16T15:29:55;3.20;;;1.23;;
56752;SDS011;42627;42.646;23.642;2022-10-16T15:31:56;2.72;;;1.45;;
56752;SDS011;42627;42.646;23.642;2022-10-16T15:34:03;2.88;;;1.48;;
56752;SDS011;42627;42.646;23.642;2022-10-16T15:36:30;2.40;;;1.30;;
56752;SDS011;42627;42.646;23.642;2022-10-16T15:38:41;2.20;;;1.20;;
56752;SDS011;42627;42.646;23.642;2022-10-16T15:40:41;2.30;;;1.10;;
56752;SDS011;42627;42.646;23.642;2022-10-16T15:42:42;4.18;;;1.80;;
56752;SDS011;42627;42.646;23.642;2022-10-16T15:44:43;2.90;;;1.30;;
56752;SDS011;42627;42.646;23.642;2022-10-16T15:46:44;5.28;;;1.30;;
56752;SDS011;42627;42.646;23.642;2022-10-16T15:48:46;3.70;;;1.67;;
56752;SDS011;42627;42.646;23.642;2022-10-16T15:50:48;3.15;;;1.38;;
56752;SDS011;42627;42.646;23.642;2022-10-16T15:52:48;8.20;;;1.70;;
56752;SDS011;42627;42.646;23.642;2022-10-16T15:54:50;4.85;;;2.13;;
56752;SDS011;42627;42.646;23.642;2022-10-16T15:56:51;5.40;;;2.17;;
56752;SDS011;42627;42.646;23.642;2022-10-16T15:58:54;8.50;;;2.50;;
56752;SDS011;42627;42.646;23.642;2022-10-16T16:00:57;7.20;;;3.42;;
56752;SDS011;42627;42.646;23.642;2022-10-16T16:03:01;9.10;;;3.45;;
56752;SDS011;42627;42.646;23.642;2022-10-16T16:05:02;8.20;;;3.55;;
56752;SDS011;42627;42.646;23.642;2022-10-16T16:07:03;11.35;;;3.67;;
56752;SDS011;42627;42.646;23.642;2022-10-16T16:09:07;8.95;;;4.00;;
56752;SDS011;42627;42.646;23.642;2022-10-16T16:11:08;12.80;;;3.65;;
56752;SDS011;42627;42.646;23.642;2022-10-16T16:13:10;21.42;;;7.72;;
56752;SDS011;42627;42.646;23.642;2022-10-16T16:15:11;19.20;;;8.02;;
56752;SDS011;42627;42.646;23.642;2022-10-16T16:17:12;27.92;;;10.85;;
56752;SDS011;42627;42.646;23.642;2022-10-16T16:19:13;41.35;;;13.25;;
56752;SDS011;42627;42.646;23.642;2022-10-16T16:21:16;22.75;;;9.93;;
56752;SDS011;42627;42.646;23.642;2022-10-16T16:23:32;9.90;;;4.38;;
56752;SDS011;42627;42.646;23.642;2022-10-16T16:25:33;6.88;;;2.67;;
56752;SDS011;42627;42.646;23.642;2022-10-16T16:27:36;3.97;;;1.77;;
56752;SDS011;42627;42.646;23.642;2022-10-16T16:29:39;5.57;;;1.60;;
56752;SDS011;42627;42.646;23.642;2022-10-16T16:31:40;3.63;;;1.88;;
56752;SDS011;42627;42.646;23.642;2022-10-16T16:36:17;4.88;;;1.90;;
56752;SDS011;42627;42.646;23.642;2022-10-16T16:40:42;4.68;;;2.50;;
56752;SDS011;42627;42.646;23.642;2022-10-16T16:53:26;10.48;;;3.70;;
56752;SDS011;42627;42.646;23.642;2022-10-16T16:55:26;6.78;;;2.75;;
56752;SDS011;42627;42.646;23.642;2022-10-16T16:57:27;4.55;;;2.22;;
56752;SDS011;42627;42.646;23.642;2022-10-16T16:59:28;5.28;;;2.30;;
56752;SDS011;42627;42.646;23.642;2022-10-16T17:01:32;4.55;;;1.85;;
56752;SDS011;42627;42.646;23.642;2022-10-16T17:03:34;5.32;;;2.22;;
56752;SDS011;42627;42.646;23.642;2022-10-16T17:05:35;4.57;;;2.08;;
56752;SDS011;42627;42.646;23.642;2022-10-16T17:09:46;6.28;;;2.08;;